createdAt,value
2022-10-13T00:02:06.833Z,14.97
2022-10-13T00:05:13.593Z,13.90
2022-10-13T00:08:26.230Z,15.37
2022-10-13T00:11:33.333Z,14.13
2022-10-13T00:14:39.778Z,13.23
2022-10-13T00:17:48.619Z,13.90
2022-10-13T00:20:55.081Z,13.90
2022-10-13T00:24:00.868Z,14.37
2022-10-13T00:27:08.392Z,12.77
2022-10-13T00:30:14.691Z,12.70
2022-10-13T00:33:23.890Z,12.93
2022-10-13T00:36:29.495Z,12.77
2022-10-13T00:39:36.104Z,13.67
2022-10-13T00:42:44.606Z,13.40
2022-10-13T00:45:54.138Z,13.00
2022-10-13T00:49:06.659Z,12.47
2022-10-13T00:52:13.162Z,12.73
2022-10-13T00:55:24.381Z,13.17
2022-10-13T00:58:33.870Z,14.50
2022-10-13T01:01:39.527Z,12.83
2022-10-13T01:04:50.845Z,14.00
2022-10-13T01:07:57.836Z,13.63
2022-10-13T01:11:19.368Z,12.40
2022-10-13T01:14:33.129Z,13.30
2022-10-13T01:17:48.239Z,14.00
2022-10-13T01:21:10.186Z,12.53
2022-10-13T01:24:46.739Z,14.60
2022-10-13T01:28:11.839Z,15.37
2022-10-13T01:31:27.089Z,14.90
2022-10-13T01:34:38.225Z,16.83
2022-10-13T01:37:51.923Z,14.53
2022-10-13T01:41:06.871Z,15.77
2022-10-13T01:44:18.394Z,15.80
2022-10-13T01:47:37.399Z,13.90
2022-10-13T01:50:44.735Z,15.73
2022-10-13T01:53:51.824Z,14.47
2022-10-13T01:56:59.546Z,16.20
2022-10-13T02:00:11.143Z,15.80
2022-10-13T02:03:29.165Z,15.47
2022-10-13T02:06:39.917Z,15.53
2022-10-13T02:09:52.803Z,16.87
2022-10-13T02:13:03.583Z,16.23
2022-10-13T02:16:10.931Z,15.70
2022-10-13T02:19:21.444Z,16.53
2022-10-13T02:22:34.634Z,15.47
2022-10-13T02:25:43.478Z,16.60
2022-10-13T02:28:50.181Z,15.70
2022-10-13T02:31:56.735Z,16.23
2022-10-13T02:35:06.349Z,15.97
2022-10-13T02:38:12.021Z,15.87
2022-10-13T02:41:18.486Z,16.37
2022-10-13T02:44:25.061Z,16.23
2022-10-13T02:47:31.924Z,16.10
2022-10-13T02:50:42.422Z,15.63
2022-10-13T02:53:49.125Z,14.30
2022-10-13T02:56:54.710Z,16.03
2022-10-13T03:00:01.159Z,16.63
2022-10-13T03:03:07.909Z,16.17
2022-10-13T03:06:17.596Z,16.67
2022-10-13T03:09:23.216Z,19.47
2022-10-13T03:12:29.963Z,22.47
2022-10-13T03:15:35.570Z,23.37
2022-10-13T03:18:45.877Z,23.83
2022-10-13T03:21:54.540Z,20.17
2022-10-13T03:25:01.016Z,16.27
2022-10-13T03:28:07.873Z,17.07
2022-10-13T03:31:16.272Z,14.60
2022-10-13T03:34:22.349Z,15.03
2022-10-13T03:37:32.370Z,14.90
2022-10-13T03:40:39.322Z,14.20
2022-10-13T03:43:47.187Z,14.07
2022-10-13T03:46:53.092Z,13.10
2022-10-13T03:50:00.166Z,13.00
2022-10-13T03:53:10.393Z,13.00
2022-10-13T03:56:19.994Z,13.70
2022-10-13T03:59:36.421Z,14.20
2022-10-13T04:02:43.553Z,12.80
2022-10-13T04:05:49.450Z,13.33
2022-10-13T04:08:59.592Z,12.00
2022-10-13T04:12:07.104Z,13.57
2022-10-13T04:15:14.186Z,14.67
2022-10-13T04:18:19.792Z,13.77
2022-10-13T04:21:27.125Z,14.60
2022-10-13T04:24:35.536Z,15.27
2022-10-13T04:27:42.277Z,15.70
2022-10-13T04:30:49.599Z,16.47
2022-10-13T04:33:56.530Z,15.90
2022-10-13T04:37:03.682Z,15.43
2022-10-13T04:40:13.726Z,17.40
2022-10-13T04:43:19.567Z,15.57
2022-10-13T04:46:28.485Z,15.93
2022-10-13T04:49:35.161Z,18.40
2022-10-13T04:52:41.671Z,15.30
2022-10-13T04:55:50.164Z,16.07
2022-10-13T04:58:56.985Z,17.13
2022-10-13T05:02:03.880Z,17.93
2022-10-13T05:05:11.742Z,17.37
2022-10-13T05:08:17.410Z,16.93
2022-10-13T05:11:28.529Z,14.37
2022-10-13T05:14:35.535Z,15.23
2022-10-13T05:17:44.388Z,14.20
2022-10-13T05:20:50.106Z,13.10
2022-10-13T05:23:57.789Z,13.23
2022-10-13T05:27:07.089Z,12.77
2022-10-13T05:30:14.856Z,13.93
2022-10-13T05:33:20.473Z,12.87
2022-10-13T05:36:30.313Z,13.63
2022-10-13T05:39:36.068Z,13.03
2022-10-13T05:42:45.674Z,13.20
2022-10-13T05:45:52.105Z,14.67
2022-10-13T05:49:01.094Z,12.97
2022-10-13T05:52:11.695Z,13.17
2022-10-13T05:55:20.953Z,12.90
2022-10-13T05:58:29.403Z,12.63
2022-10-13T06:01:38.804Z,11.63
2022-10-13T06:04:47.938Z,11.97
2022-10-13T06:07:55.206Z,11.93
2022-10-13T06:11:01.287Z,12.10
2022-10-13T06:14:12.199Z,10.73
2022-10-13T06:17:17.827Z,13.27
2022-10-13T06:20:24.577Z,14.40
2022-10-13T06:23:30.233Z,13.63
2022-10-13T06:26:36.718Z,14.43
2022-10-13T06:29:45.084Z,13.30
2022-10-13T06:32:51.611Z,14.87
2022-10-13T06:35:57.284Z,14.13
2022-10-13T06:39:04.191Z,13.50
2022-10-13T06:42:09.791Z,13.53
2022-10-13T06:45:26.138Z,14.13
2022-10-13T06:48:33.115Z,13.30
2022-10-13T06:51:39.796Z,13.50
2022-10-13T06:54:45.599Z,12.93
2022-10-13T06:57:52.134Z,14.33
2022-10-13T07:01:01.072Z,13.60
2022-10-13T07:04:09.448Z,13.40
2022-10-13T07:07:15.268Z,12.37
2022-10-13T07:10:22.066Z,12.60
2022-10-13T07:13:30.444Z,13.63
2022-10-13T07:16:42.247Z,12.07
2022-10-13T07:19:48.880Z,12.40
2022-10-13T07:22:57.210Z,11.63
2022-10-13T07:26:04.954Z,13.10
2022-10-13T07:29:12.029Z,12.10
2022-10-13T07:32:20.642Z,11.67
2022-10-13T07:35:30.745Z,11.60
2022-10-13T07:38:36.781Z,10.37
2022-10-13T07:41:46.417Z,9.17
2022-10-13T07:44:55.769Z,9.67
2022-10-13T07:48:06.359Z,9.20
2022-10-13T07:51:14.094Z,9.20
2022-10-13T07:54:23.791Z,11.77
2022-10-13T07:57:32.910Z,9.63
2022-10-13T08:00:39.400Z,8.97
2022-10-13T08:03:50.333Z,8.63
2022-10-13T08:06:58.528Z,8.87
2022-10-13T08:10:04.215Z,8.97
2022-10-13T08:13:10.845Z,8.47
2022-10-13T08:16:16.726Z,8.83
2022-10-13T08:19:26.781Z,9.13
2022-10-13T08:22:34.428Z,8.47
2022-10-13T08:25:41.916Z,8.23
2022-10-13T08:29:02.933Z,7.70
2022-10-13T08:32:09.794Z,7.20
2022-10-13T08:35:18.252Z,6.90
2022-10-13T08:38:24.775Z,7.03
2022-10-13T08:41:34.135Z,6.93
2022-10-13T08:48:17.362Z,6.90
2022-10-13T08:51:26.834Z,7.53
2022-10-13T08:54:32.575Z,7.10
2022-10-13T08:57:39.098Z,7.30
2022-10-13T09:00:45.308Z,6.47
2022-10-13T09:03:54.537Z,6.67
2022-10-13T09:07:09.530Z,6.43
2022-10-13T09:10:16.978Z,7.07
2022-10-13T09:13:30.407Z,6.73
2022-10-13T09:16:40.528Z,7.03
2022-10-13T09:19:59.972Z,7.63
2022-10-13T09:23:21.561Z,7.60
2022-10-13T09:26:28.171Z,7.00
2022-10-13T09:29:34.898Z,7.37
2022-10-13T09:32:40.956Z,7.20
2022-10-13T09:35:49.657Z,7.13
2022-10-13T09:39:20.247Z,8.47
2022-10-13T09:42:30.280Z,7.57
2022-10-13T09:45:45.747Z,6.60
2022-10-13T09:48:54.366Z,7.20
2022-10-13T09:52:06.604Z,6.53
2022-10-13T09:55:35.294Z,6.73
2022-10-13T09:58:47.689Z,6.00
2022-10-13T10:01:58.786Z,8.77
2022-10-13T10:05:14.277Z,5.10
2022-10-13T10:08:33.376Z,5.27
2022-10-13T10:11:46.395Z,5.50
2022-10-13T10:14:53.179Z,4.90
2022-10-13T10:18:04.290Z,5.27
2022-10-13T10:21:15.567Z,5.77
2022-10-13T10:24:28.934Z,5.17
2022-10-13T10:27:44.109Z,4.47
2022-10-13T10:30:58.412Z,4.50
2022-10-13T10:34:23.221Z,5.00
2022-10-13T10:37:47.686Z,4.77
2022-10-13T10:41:04.332Z,4.30
2022-10-13T10:44:18.054Z,5.13
2022-10-13T10:47:29.157Z,4.20
2022-10-13T10:50:37.903Z,4.63
2022-10-13T10:53:58.706Z,4.63
2022-10-13T10:57:12.285Z,4.00
2022-10-13T11:00:24.096Z,4.33
2022-10-13T11:03:40.775Z,4.13
2022-10-13T11:06:47.694Z,4.00
2022-10-13T11:10:21.622Z,4.20
2022-10-13T11:13:29.301Z,3.60
2022-10-13T11:16:42.254Z,4.03
2022-10-13T11:19:52.639Z,4.43
2022-10-13T11:23:35.089Z,4.20
2022-10-13T11:26:46.513Z,3.40
2022-10-13T11:29:59.403Z,3.07
2022-10-13T11:33:37.752Z,3.27
2022-10-13T11:36:58.313Z,3.20
2022-10-13T11:40:19.426Z,3.17
2022-10-13T11:43:37.475Z,3.30
2022-10-13T11:47:04.275Z,3.00
2022-10-13T11:50:21.917Z,3.27
2022-10-13T11:53:31.016Z,2.67
2022-10-13T11:56:39.752Z,3.37
2022-10-13T11:59:51.617Z,2.90
2022-10-13T12:03:06.296Z,2.77
2022-10-13T12:06:33.431Z,2.67
2022-10-13T12:09:45.117Z,3.20
2022-10-13T12:12:52.826Z,3.83
2022-10-13T12:16:05.366Z,3.70
2022-10-13T12:19:12.828Z,4.60
2022-10-13T12:22:21.449Z,4.27
2022-10-13T12:25:31.322Z,4.27
2022-10-13T12:28:51.541Z,3.87
2022-10-13T12:31:58.814Z,3.80
2022-10-13T12:35:18.983Z,4.40
2022-10-13T12:38:28.472Z,4.97
2022-10-13T12:41:36.506Z,4.67
2022-10-13T12:44:43.990Z,4.20
2022-10-13T12:47:52.042Z,3.97
2022-10-13T12:50:58.586Z,3.87
2022-10-13T12:54:10.466Z,4.17
2022-10-13T12:57:21.312Z,4.50
2022-10-13T13:00:29.944Z,4.27
2022-10-13T13:03:38.999Z,4.77
2022-10-13T13:06:56.604Z,6.53
2022-10-13T13:10:17.927Z,5.97
2022-10-13T13:13:26.312Z,5.93
2022-10-13T13:16:33.156Z,5.43
2022-10-13T13:19:39.543Z,6.30
2022-10-13T13:22:48.428Z,5.73
2022-10-13T13:26:08.145Z,6.20
2022-10-13T13:29:14.596Z,5.97
2022-10-13T13:32:25.552Z,5.70
2022-10-13T13:35:32.094Z,5.53
2022-10-13T13:38:37.801Z,5.00
2022-10-13T13:41:48.069Z,6.03
2022-10-13T13:44:53.868Z,6.37
2022-10-13T13:48:01.013Z,6.90
2022-10-13T13:51:07.487Z,6.43
2022-10-13T13:54:13.976Z,6.00
2022-10-13T13:57:23.223Z,5.90
2022-10-13T14:00:29.841Z,6.30
2022-10-13T14:03:35.834Z,6.20
2022-10-13T14:06:44.878Z,5.97
2022-10-13T14:09:50.510Z,6.33
2022-10-13T14:13:01.173Z,5.83
2022-10-13T14:16:08.310Z,6.60
2022-10-13T14:19:15.036Z,5.47
2022-10-13T14:22:21.401Z,5.50
2022-10-13T14:25:28.095Z,6.03
2022-10-13T14:28:36.713Z,5.93
2022-10-13T14:31:43.508Z,6.20
2022-10-13T14:34:49.074Z,6.57
2022-10-13T14:37:55.588Z,6.63
2022-10-13T14:41:03.228Z,6.73
2022-10-13T14:44:14.378Z,7.23
2022-10-13T14:47:24.146Z,6.27
2022-10-13T14:50:30.933Z,6.17
2022-10-13T14:53:37.953Z,6.63
2022-10-13T14:56:44.797Z,6.63
2022-10-13T14:59:54.955Z,5.43
2022-10-13T15:03:06.571Z,5.57
2022-10-13T15:06:16.271Z,5.93
2022-10-13T15:09:29.099Z,5.77
2022-10-13T15:12:44.516Z,5.37
2022-10-13T15:15:54.004Z,6.67
2022-10-13T15:19:00.459Z,5.97
2022-10-13T15:22:09.108Z,6.67
2022-10-13T15:25:14.739Z,5.93
2022-10-13T15:28:21.792Z,6.80
2022-10-13T15:31:31.128Z,6.00
2022-10-13T15:34:37.642Z,6.37
2022-10-13T15:37:43.284Z,6.53
2022-10-13T15:40:50.439Z,6.60
2022-10-13T15:43:56.036Z,6.53
2022-10-13T15:47:08.274Z,6.37
2022-10-13T15:50:15.250Z,6.37
2022-10-13T15:53:21.906Z,7.00
2022-10-13T15:56:27.817Z,6.47
2022-10-13T15:59:34.512Z,6.60
2022-10-13T16:02:43.364Z,7.43
2022-10-13T16:05:50.248Z,6.93
2022-10-13T16:08:56.338Z,7.53
2022-10-13T16:12:03.287Z,6.97
2022-10-13T16:15:10.550Z,7.07
2022-10-13T16:18:19.873Z,7.17
2022-10-13T16:21:27.694Z,7.90
2022-10-13T16:24:34.353Z,7.57
2022-10-13T16:27:44.477Z,8.17
2022-10-13T16:30:51.245Z,8.50
2022-10-13T16:33:59.623Z,8.70
2022-10-13T16:37:07.111Z,8.50
2022-10-13T16:40:13.703Z,8.27
2022-10-13T16:43:20.103Z,8.90
2022-10-13T16:46:33.266Z,9.67
2022-10-13T16:49:42.514Z,9.63
2022-10-13T16:52:49.267Z,9.30
2022-10-13T16:55:55.708Z,9.07
2022-10-13T16:59:03.322Z,9.67
2022-10-13T17:02:10.075Z,8.93
2022-10-13T17:05:20.699Z,9.03
2022-10-13T17:08:27.344Z,9.17
2022-10-13T17:11:34.926Z,8.87
2022-10-13T17:14:44.656Z,9.03
2022-10-13T17:17:50.228Z,8.53
2022-10-13T17:21:01.099Z,8.70
2022-10-13T17:24:07.769Z,9.40
2022-10-13T17:27:14.587Z,9.10
2022-10-13T17:30:20.325Z,8.17
2022-10-13T17:33:26.817Z,8.00
2022-10-13T17:36:35.546Z,8.57
2022-10-13T17:39:48.069Z,8.80
2022-10-13T17:42:53.741Z,8.30
2022-10-13T17:46:34.349Z,9.30
2022-10-13T17:49:36.437Z,8.63
2022-10-13T17:52:45.996Z,8.53
2022-10-13T17:55:51.659Z,8.17
2022-10-13T17:58:59.748Z,8.23
2022-10-13T18:02:07.333Z,8.47
2022-10-13T18:05:14.039Z,8.90
2022-10-13T18:08:22.986Z,8.80
2022-10-13T18:11:29.808Z,8.70
2022-10-13T18:14:35.515Z,8.37
2022-10-13T18:17:42.628Z,8.53
2022-10-13T18:20:48.735Z,8.70
2022-10-13T18:23:59.079Z,8.93
2022-10-13T18:27:06.565Z,9.70
2022-10-13T18:30:21.363Z,8.87
2022-10-13T18:33:27.835Z,9.33
2022-10-13T18:36:35.975Z,9.80
2022-10-13T18:39:49.951Z,10.63
2022-10-13T18:42:56.357Z,9.73
2022-10-13T18:46:03.289Z,9.97
2022-10-13T18:49:12.527Z,10.10
2022-10-13T18:52:20.695Z,9.40
2022-10-13T18:55:30.013Z,9.50
2022-10-13T18:58:35.812Z,8.60
2022-10-13T19:01:43.083Z,9.07
2022-10-13T19:04:51.426Z,9.80
2022-10-13T19:07:58.205Z,9.57
2022-10-13T19:11:13.458Z,9.00
2022-10-13T19:14:20.075Z,9.33
2022-10-13T19:17:25.891Z,8.90
2022-10-13T19:20:32.725Z,8.03
2022-10-13T19:23:43.616Z,8.63
2022-10-13T19:27:01.205Z,9.33
2022-10-13T19:30:09.065Z,10.60
2022-10-13T19:33:16.542Z,9.53
2022-10-13T19:36:30.419Z,9.20
2022-10-13T19:39:39.970Z,9.90
2022-10-13T19:42:48.445Z,9.83
2022-10-13T19:45:59.634Z,9.73
2022-10-13T19:49:08.033Z,10.60
2022-10-13T19:52:15.029Z,10.90
2022-10-13T19:55:20.784Z,10.60
2022-10-13T19:58:30.203Z,12.00
2022-10-13T20:01:39.983Z,12.20
2022-10-13T20:04:52.230Z,10.90
2022-10-13T20:07:58.259Z,9.60
2022-10-13T20:11:09.112Z,9.80
2022-10-13T20:14:18.208Z,9.93
2022-10-13T20:17:24.724Z,10.23
2022-10-13T20:20:30.961Z,10.63
2022-10-13T20:23:38.058Z,11.87
2022-10-13T20:26:43.799Z,13.17
2022-10-13T20:29:54.007Z,13.90
2022-10-13T20:33:00.258Z,13.13
2022-10-13T20:36:11.955Z,12.87
2022-10-13T20:39:17.611Z,13.63
2022-10-13T20:42:24.066Z,12.13
2022-10-13T20:45:32.429Z,11.23
2022-10-13T20:49:08.658Z,11.83
2022-10-13T20:52:08.139Z,11.47
2022-10-13T20:55:14.669Z,11.30
2022-10-13T20:58:20.264Z,11.50
2022-10-13T21:01:29.765Z,10.83
2022-10-13T21:04:35.488Z,9.63
2022-10-13T21:07:42.471Z,9.53
2022-10-13T21:10:49.048Z,9.57
2022-10-13T21:13:58.130Z,9.90
2022-10-13T21:17:08.680Z,9.50
2022-10-13T21:20:15.137Z,9.73
2022-10-13T21:23:20.686Z,10.60
2022-10-13T21:26:31.081Z,10.37
2022-10-13T21:29:36.645Z,9.67
2022-10-13T21:32:45.960Z,10.27
2022-10-13T21:35:51.516Z,10.33
2022-10-13T21:39:03.612Z,9.97
2022-10-13T21:42:09.227Z,10.10
2022-10-13T21:45:15.715Z,10.33
2022-10-13T21:48:24.389Z,10.40
2022-10-13T21:51:32.601Z,10.80
2022-10-13T21:54:38.180Z,10.20
2022-10-13T21:57:44.630Z,11.37
2022-10-13T22:00:50.474Z,11.10
2022-10-13T22:04:03.846Z,11.77
2022-10-13T22:07:09.482Z,10.97
2022-10-13T22:10:16.119Z,10.70
2022-10-13T22:13:22.186Z,11.90
2022-10-13T22:16:31.345Z,11.10
2022-10-13T22:19:39.762Z,11.40
2022-10-13T22:22:46.485Z,11.90
2022-10-13T22:25:54.364Z,11.33
2022-10-13T22:29:03.626Z,11.67
2022-10-13T22:32:09.484Z,11.07
2022-10-13T22:35:18.820Z,11.50
2022-10-13T22:38:24.815Z,11.10
2022-10-13T22:41:31.799Z,11.80
2022-10-13T22:44:37.363Z,10.97
2022-10-13T22:47:43.848Z,10.97
2022-10-13T22:50:52.447Z,10.67
2022-10-13T22:54:00.225Z,11.80
2022-10-13T22:57:07.854Z,10.90
2022-10-13T23:00:15.332Z,11.20
2022-10-13T23:03:22.519Z,14.37
2022-10-13T23:06:34.820Z,12.67
2022-10-13T23:09:40.719Z,13.77
2022-10-13T23:12:47.250Z,13.43
2022-10-13T23:15:52.919Z,13.27
2022-10-13T23:19:04.331Z,14.43
2022-10-13T23:22:13.238Z,12.33
2022-10-13T23:25:19.774Z,12.60
2022-10-13T23:28:25.429Z,12.67
2022-10-13T23:31:32.154Z,13.57
2022-10-13T23:34:37.735Z,12.13
2022-10-13T23:37:47.115Z,12.70
2022-10-13T23:40:52.873Z,13.00
2022-10-13T23:43:59.983Z,13.07
2022-10-13T23:47:08.247Z,14.30
2022-10-13T23:50:14.736Z,13.57
2022-10-13T23:53:23.471Z,13.57
2022-10-13T23:56:30.221Z,14.87
2022-10-13T23:59:36.557Z,15.30
